• Join FlightAware (Why Join?)
  • Login
  • US Flag 
01:43PM EDT


 

Airport Tracker/Info


-or-


 

Live Flight TrackerFlight Track Log ✈ DLH455 ✈ 04-Jul-2013 ✈ KSFO - EDDF / FRA

Flight Track Log - Related Links

Times and Time Zones

All times are in EDT time to prevent confusion due to time zone crossing. See the DLH455 flight status page for this flight to view local times or setup timezone preferences in your user account.

Time Position Orientation Groundspeed Altitude Reporting Facility
EDT Latitude Longitude Course Direction KTS MPH feet Rate Location/Type
06:05PM 37.6250 -122.3940 360° North 20 23  Level FlightAware
06:06PM 37.6270 -122.3960 322° Northwest 33 38  Level FlightAware
06:06PM 37.6280 -122.3970 322° Northwest 29 33  Level FlightAware
06:07PM 37.6300 -122.3970 360° North 30 35  Level FlightAware
06:07PM 37.6310 -122.3960 38° Northeast 30 35  Level FlightAware
06:10PM 37.6250 -122.3800 115° Southeast 21 24  Level FlightAware
06:17PM 37.6140 -122.3590 270° West 33 38  Level FlightAware
06:17PM 37.6184 -122.3690 299° West 107 123 200 360 Climbing FlightAware ADS-B
06:17PM 37.6241 -122.3820 299° West 156 180 300 720 Climbing FlightAware ADS-B
06:18PM 37.6286 -122.3940 295° West 164 189 600 1,200 Climbing FlightAware ADS-B
06:18PM 37.6341 -122.4070 298° West 169 194 900 1,320 Climbing FlightAware ADS-B
06:18PM 37.6394 -122.4210 296° West 172 198 1,300 1,620 Climbing FlightAware ADS-B
06:18PM 37.6459 -122.4370 297° West 172 198 1,800 1,560 Climbing FlightAware ADS-B
06:19PM 37.6513 -122.4520 294° West 171 197 2,200 1,500 Climbing FlightAware ADS-B
06:19PM 37.6569 -122.4650 299° West 172 198 2,600 1,500 Climbing FlightAware ADS-B
06:19PM 37.6628 -122.4790 298° West 170 196 3,000 1,500 Climbing FlightAware ADS-B
06:19PM 37.6687 -122.4920 300° West 170 196 3,400 1,140 Climbing FlightAware ADS-B
06:20PM 37.6752 -122.5060 300° West 180 207 3,600 540 Climbing FlightAware ADS-B
06:20PM 37.6827 -122.5220 301° West 195 224 3,700 480 Climbing FlightAware ADS-B
06:20PM 37.6864 -122.5290 304° West 200 230 3,800 960 Climbing FlightAware ADS-B
06:20PM 37.6896 -122.5340 309° West 203 234 3,900 720 Climbing FlightAware ADS-B
06:21PM 37.7426 -122.5370 357° North 203 234 4,500 720 Climbing FlightAware ADS-B
06:21PM 37.7525 -122.5350 North 249 287 4,700 1,440 Climbing FlightAware ADS-B
06:22PM 37.7762 -122.5320 North 260 299 5,200 1,620 Climbing FlightAware ADS-B
06:22PM 37.8165 -122.5020 30° Northeast 281 323 6,300 1,740 Climbing FlightAware ADS-B
06:23PM 37.8345 -122.4730 52° Northeast 281 323 7,000 1,800 Climbing FlightAware ADS-B
06:23PM 37.8516 -122.4470 50° Northeast 287 330 7,600 1,680 Climbing FlightAware ADS-B
06:24PM 37.8820 -122.4020 49° Northeast 295 339 8,600 1,800 Climbing FlightAware
06:24PM 37.9070 -122.3640 50° Northeast 296 341 9,500 1,800 Climbing FlightAware
06:24PM 37.9180 -122.3490 47° Northeast 300 345 9,800 1,260 Climbing FlightAware
06:25PM 37.9580 -122.2880 50° Northeast 322 371 10,700 1,080 Climbing FlightAware
06:25PM 37.9864 -122.2450 50° Northeast 347 399 11,100 660 Climbing FlightAware ADS-B
06:26PM 38.0229 -122.1910 49° Northeast 373 429 11,400 840 Climbing FlightAware ADS-B
06:27PM 38.0988 -122.0760 50° Northeast 409 471 12,500 1,140 Climbing FlightAware ADS-B
06:28PM 38.1370 -122.0190 50° Northeast 413 475 13,300 1,500 Climbing FlightAware
06:28PM 38.1726 -121.9650 50° Northeast 411 473 14,000 1,500 Climbing FlightAware ADS-B
06:29PM 38.2117 -121.9050 50° Northeast 426 490 14,800 1,500 Climbing FlightAware ADS-B
06:29PM 38.2506 -121.8460 50° Northeast 431 496 15,600 1,440 Climbing FlightAware ADS-B
06:30PM 38.3320 -121.7220 50° Northeast 441 507 17,100 1,320 Climbing FlightAware ADS-B
06:31PM 38.3830 -121.6440 50° Northeast 449 517 17,900 1,260 Climbing FlightAware
06:31PM 38.4380 -121.5610 50° Northeast 460 529 18,800 1,440 Climbing FlightAware
06:32PM 38.4940 -121.4690 52° Northeast 467 537 19,900 1,500 Climbing FlightAware
06:32PM 38.5201 -121.4240 53° Northeast 443 510 20,400 1,440 Climbing FlightAware ADS-B
06:33PM 38.6200 -121.3220 39° Northeast 478 550 21,800 1,500 Climbing FlightAware
06:34PM 38.6920 -121.2500 38° Northeast 484 557 22,900 1,320 Climbing FlightAware
06:35PM 38.7620 -121.1800 38° Northeast 495 570 23,600 1,020 Climbing FlightAware
06:35PM 38.8240 -121.1190 37° Northeast 504 580 24,200 1,380 Climbing FlightAware
06:36PM 38.9130 -121.0300 38° Northeast 503 579 25,500 1,380 Climbing FlightAware
06:37PM 38.9790 -120.9640 38° Northeast 510 587 26,200 1,020 Climbing FlightAware
06:37PM 39.0540 -120.8890 38° Northeast 519 597 26,800 1,020 Climbing FlightAware
06:38PM 39.1120 -120.8300 38° Northeast 524 603 27,400 1,020 Climbing FlightAware
06:39PM 39.1780 -120.7630 38° Northeast 527 606 28,000 1,020 Climbing FlightAware
06:39PM 39.2550 -120.6860 38° Northeast 534 615 28,700 960 Climbing FlightAware
06:40PM 39.3130 -120.6260 39° Northeast 540 621 29,100 960 Climbing FlightAware
06:40PM 39.3760 -120.5630 38° Northeast 539 620 29,700 1,020 Climbing FlightAware
06:41PM 39.4470 -120.4890 39° Northeast 543 625 30,300 1,140 Climbing FlightAware
06:41PM 39.5250 -120.4100 38° Northeast 538 619 31,200 960 Climbing FlightAware
06:42PM 39.6120 -120.3200 39° Northeast 545 627 31,700 900 Climbing FlightAware
06:43PM 39.6830 -120.2470 38° Northeast 542 624 32,400 1,200 Climbing FlightAware
06:43PM 39.7540 -120.1750 38° Northeast 535 616 33,200 1,140 Climbing FlightAware
06:44PM 39.8400 -120.0860 38° Northeast 533 613 34,000 900 Climbing FlightAware
06:45PM 39.9100 -120.0120 39° Northeast 532 612 34,500 780 Climbing FlightAware
06:45PM 39.9880 -119.9310 38° Northeast 531 611 35,000 360 Climbing FlightAware
06:46PM 40.0590 -119.8640 36° Northeast 528 608 35,000  Level FlightAware
06:47PM 40.1520 -119.8050 26° Northeast 535 616 35,000  Level FlightAware
06:47PM 40.2420 -119.7490 25° Northeast 534 615 35,000  Level FlightAware
06:48PM 40.3440 -119.6870 25° Northeast 534 615 35,000  Level FlightAware
06:49PM 40.4280 -119.6260 29° Northeast 534 615 35,000  Level FlightAware
06:49PM 40.5090 -119.5670 29° Northeast 536 617 35,000  Level FlightAware
06:50PM 40.5930 -119.5020 30° Northeast 537 618 35,000  Level FlightAware
06:51PM 40.6670 -119.4230 39° Northeast 541 623 35,000  Level FlightAware
06:51PM 40.7370 -119.3450 40° Northeast 532 612 35,000  Level FlightAware
06:52PM 40.8200 -119.2530 40° Northeast 539 620 35,000  Level FlightAware
06:53PM 40.8900 -119.1750 40° Northeast 536 617 35,000  Level FlightAware
06:53PM 40.9730 -119.0810 41° Northeast 539 620 35,000  Level FlightAware
06:54PM 41.0580 -118.9860 40° Northeast 541 623 35,000  Level FlightAware
06:55PM 41.1390 -118.8930 41° Northeast 539 620 35,000  Level FlightAware
06:56PM 41.1960 -118.8260 41° Northeast 539 620 35,000  Level FlightAware
06:56PM 41.2540 -118.7590 41° Northeast 539 620 35,000  Level FlightAware
06:57PM 41.3550 -118.6470 40° Northeast 540 621 35,000  Level FlightAware
06:58PM 41.3730 -118.6260 41° Northeast 541 623 35,000  Level FlightAware
06:58PM 41.5130 -118.4650 41° Northeast 538 619 35,000  Level FlightAware
06:59PM 41.5700 -118.4000 40° Northeast 537 618 35,000  Level FlightAware
07:00PM 41.6460 -118.3110 41° Northeast 537 618 35,000  Level FlightAware
07:00PM 41.7040 -118.2440 41° Northeast 537 618 35,000  Level FlightAware
07:01PM 41.7820 -118.1530 41° Northeast 537 618 35,000  Level FlightAware
07:02PM 41.8390 -118.0860 41° Northeast 537 618 35,000  Level FlightAware
07:02PM 41.9140 -117.9980 41° Northeast 537 618 35,000 1,380 Level FlightAware
07:03PM 42.1360 -118.2960 315° West 505 581 37,000 1,380 Climbing FlightAware
07:04PM 42.1530 -118.3010 348° North 503 579 37,000  Level FlightAware
07:05PM 42.1530 -118.3010 348° North 508 585 37,000  Level FlightAware
07:05PM 42.2270 -118.3260 346° North 508 585 37,000  Level FlightAware
07:06PM 42.5100 -118.4150 347° North 520 598 37,000  Level FlightAware
07:07PM 42.5670 -118.4250 353° North 527 606 37,000  Level FlightAware
07:08PM 42.6680 -118.4420 353° North 527 606 37,000  Level FlightAware
07:08PM 42.7420 -118.4540 353° North 527 606 37,000  Level FlightAware
07:09PM 42.8430 -118.4710 353° North 527 606 37,000  Level FlightAware
07:10PM 42.9170 -118.4830 353° North 527 606 37,000  Level FlightAware
07:10PM 42.9930 -118.4960 353° North 527 606 37,000  Level FlightAware
07:11PM 43.0670 -118.5080 353° North 527 606 37,000  Level FlightAware
07:12PM 43.1660 -118.5250 353° North 527 606 37,000  Level FlightAware
07:12PM 43.2400 -118.5380 353° North 527 606 37,000  Level FlightAware
07:13PM 43.3140 -118.5500 353° North 527 606 37,000  Level FlightAware
07:14PM 43.4130 -118.5670 353° North 527 606 37,000  Level FlightAware
07:14PM 43.4870 -118.5790 353° North 527 606 37,000  Level FlightAware
07:15PM 43.5850 -118.5960 353° North 527 606 37,000  Level FlightAware
07:16PM 43.6590 -118.6090 353° North 527 606 37,000  Level FlightAware
07:16PM 43.8128 -117.4775 353° North 554 638 37,000  Level Salt Lake Center
07:17PM 43.9119 -117.3289 47° Northeast 549 632 37,000  Level Salt Lake Center
07:18PM 44.0286 -117.1553 47° Northeast 551 634 37,000  Level Salt Lake Center
07:19PM 44.1300 -117.0050 47° Northeast 554 638 37,000  Level Salt Lake Center
07:20PM 44.2303 -116.8553 47° Northeast 552 635 37,000  Level Salt Lake Center
07:21PM 44.3447 -116.6808 47° Northeast 547 629 37,000  Level Salt Lake Center
07:22PM 44.4436 -116.5311 47° Northeast 544 626 37,000  Level Salt Lake Center
07:23PM 44.5433 -116.3811 47° Northeast 543 625 37,000  Level Salt Lake Center
07:25PM 44.6600 -116.2000 48° Northeast 548 631 37,000  Level Salt Lake Center
07:26PM 44.7575 -116.0478 48° Northeast 544 626 37,000  Level Salt Lake Center
07:27PM 44.8544 -115.8972 48° Northeast 540 621 37,000  Level Salt Lake Center
07:28PM 44.9506 -115.7458 48° Northeast 541 623 37,000  Level Salt Lake Center
07:29PM 45.0619 -115.5667 49° Northeast 543 625 37,000  Level Salt Lake Center
07:30PM 45.1583 -115.4147 48° Northeast 542 624 37,000  Level Salt Lake Center
07:31PM 45.2697 -115.2372 48° Northeast 539 620 37,000  Level Salt Lake Center
07:32PM 45.3647 -115.0839 49° Northeast 540 621 37,000  Level Salt Lake Center
07:33PM 45.4594 -114.9311 48° Northeast 539 620 37,000  Level Salt Lake Center
07:34PM 45.5711 -114.7519 48° Northeast 541 623 37,000  Level Salt Lake Center
07:34PM 45.6331 -114.6500 49° Northeast 541 623 37,000  Level Seattle Center
07:35PM 45.7322 -114.4867 49° Northeast 544 626 37,000  Level Seattle Center
07:36PM 45.8306 -114.3242 49° Northeast 542 624 37,000  Level Seattle Center
07:37PM 45.9350 -114.1506 49° Northeast 541 623 37,000  Level Seattle Center
07:38PM 46.0342 -113.9878 49° Northeast 543 625 37,000  Level Seattle Center
07:39PM 46.1322 -113.8203 50° Northeast 546 628 37,000  Level Seattle Center
07:40PM 46.2306 -113.6542 49° Northeast 546 628 37,000  Level Seattle Center
07:42PM 46.3678 -113.4189 50° Northeast 548 631 37,000  Level Salt Lake Center
07:43PM 46.4547 -113.2728 49° Northeast 546 628 37,000  Level Salt Lake Center
07:44PM 46.5531 -113.1050 50° Northeast 547 629 37,000  Level Salt Lake Center
07:45PM 46.6503 -112.9350 50° Northeast 548 631 37,000  Level Salt Lake Center
07:46PM 46.7658 -112.7319 50° Northeast 545 627 37,000  Level Salt Lake Center
07:47PM 46.8636 -112.5608 50° Northeast 549 632 37,000  Level Salt Lake Center
07:48PM 46.9619 -112.3897 50° Northeast 550 633 37,000  Level Salt Lake Center
07:49PM 47.0656 -112.2256 47° Northeast 551 634 37,000  Level Salt Lake Center
07:50PM 47.1697 -112.0614 47° Northeast 551 634 37,000  Level Salt Lake Center
07:51PM 47.2731 -111.8964 47° Northeast 549 632 37,000  Level Salt Lake Center
07:52PM 47.3767 -111.7333 47° Northeast 547 629 37,000  Level Salt Lake Center
07:53PM 47.4814 -111.5686 47° Northeast 549 632 37,000  Level Salt Lake Center
07:54PM 47.5844 -111.3783 51° Northeast 547 629 37,000  Level Salt Lake Center
07:55PM 47.6803 -111.2039 51° Northeast 549 632 37,000  Level Salt Lake Center
07:56PM 47.7808 -111.0258 50° Northeast 553 636 37,000  Level Salt Lake Center
07:57PM 47.8772 -110.8522 50° Northeast 550 633 37,000  Level Salt Lake Center
07:58PM 47.9714 -110.6756 51° Northeast 546 628 37,000  Level Salt Lake Center
07:59PM 48.0619 -110.4942 53° Northeast 546 628 37,000  Level Salt Lake Center
08:00PM 48.1539 -110.3139 53° Northeast 547 629 37,000  Level Salt Lake Center
08:06PM 48.7350 -109.2650 53° Northeast 537 618 37,000  Level FlightAware
08:07PM 48.7940 -109.1570 50° Northeast 537 618 37,000  Level FlightAware
08:07PM 48.8590 -109.0400 50° Northeast 536 617 37,000  Level FlightAware
08:08PM 48.9080 -108.9510 50° Northeast 536 617 37,000  Level FlightAware
08:09PM 48.9730 -108.8330 50° Northeast 536 617 37,000  Level FlightAware
08:09PM 49.0220 -108.7450 50° Northeast 536 617 37,000  Level FlightAware
08:10PM 49.0870 -108.6260 50° Northeast 536 617 37,000  Level FlightAware
08:11PM 49.1350 -108.5370 50° Northeast 536 617 37,000  Level FlightAware
08:11PM 49.1840 -108.4490 50° Northeast 536 617 37,000  Level FlightAware
08:12PM 49.2490 -108.3300 50° Northeast 536 617 37,000  Level FlightAware
08:13PM 49.2980 -108.2410 50° Northeast 536 617 37,000  Level FlightAware
08:14PM 49.3630 -108.1220 50° Northeast 536 617 37,000  Level FlightAware
08:14PM 49.4120 -108.0320 50° Northeast 536 617 37,000  Level FlightAware
08:15PM 49.5420 -107.7470 55° Northeast 37,000  Level FlightAware
08:17PM 49.7230 -107.3950 51° Northeast 528 608 37,000  Level FlightAware
08:18PM 49.7940 -107.2540 52° Northeast 527 606 37,000  Level FlightAware
08:18PM 49.8340 -107.1740 52° Northeast 529 609 37,000  Level FlightAware
08:19PM 49.9050 -107.0340 52° Northeast 530 610 37,000  Level FlightAware
08:20PM 49.9690 -106.9060 52° Northeast 531 611 37,000  Level FlightAware
08:20PM 50.0250 -106.7950 52° Northeast 529 609 37,000  Level FlightAware
08:21PM 50.0890 -106.6650 52° Northeast 526 605 37,000  Level FlightAware
08:22PM 50.1560 -106.5300 52° Northeast 527 606 37,000  Level FlightAware
08:22PM 50.2170 -106.4060 52° Northeast 528 608 37,000  Level FlightAware
08:23PM 50.2730 -106.2900 53° Northeast 526 605 37,000  Level FlightAware
08:24PM 50.3210 -106.1920 52° Northeast 523 602 37,000  Level FlightAware
08:24PM 50.3890 -106.0510 53° Northeast 521 600 37,000  Level FlightAware
08:25PM 50.4430 -105.9410 52° Northeast 522 601 37,000  Level FlightAware
08:26PM 50.4950 -105.8310 53° Northeast 522 601 37,000  Level FlightAware
08:26PM 50.5650 -105.6870 53° Northeast 525 604 37,000  Level FlightAware
08:27PM 50.6200 -105.5700 53° Northeast 526 605 37,000  Level FlightAware
08:28PM 50.6870 -105.4290 53° Northeast 528 608 37,000  Level FlightAware
08:28PM 50.7410 -105.3140 53° Northeast 526 605 37,000  Level FlightAware
08:29PM 50.8050 -105.1780 53° Northeast 524 603 37,000  Level FlightAware
08:30PM 50.8610 -105.0570 54° Northeast 523 602 37,000  Level FlightAware
08:31PM 50.9320 -104.9050 53° Northeast 523 602 37,000  Level FlightAware
08:31PM 50.9870 -104.7850 54° Northeast 526 605 37,000  Level FlightAware
08:32PM 51.0450 -104.6590 54° Northeast 524 603 37,000  Level FlightAware
08:33PM 51.1070 -104.5240 54° Northeast 526 605 37,000  Level FlightAware
08:33PM 51.1650 -104.3960 54° Northeast 524 603 37,000  Level FlightAware
08:34PM 51.2450 -104.2210 54° Northeast 525 604 37,000  Level FlightAware
08:35PM 51.3120 -104.0710 54° Northeast 526 605 37,000  Level FlightAware
08:36PM 51.3660 -103.9510 54° Northeast 524 603 37,000  Level FlightAware
08:36PM 51.4240 -103.8190 55° Northeast 522 601 37,000  Level FlightAware
08:37PM 51.4760 -103.7050 54° Northeast 523 602 37,000  Level FlightAware
08:38PM 51.5190 -103.6090 54° Northeast 523 602 37,000  Level FlightAware
08:38PM 51.5750 -103.4850 54° Northeast 523 602 37,000  Level FlightAware
08:39PM 51.6180 -103.3890 54° Northeast 523 602 37,000  Level FlightAware
08:40PM 51.6620 -103.2930 54° Northeast 523 602 37,000  Level FlightAware
08:40PM 51.7050 -103.1960 54° Northeast 523 602 37,000  Level FlightAware
08:41PM 51.7640 -103.0640 54° Northeast 523 602 37,000  Level FlightAware
08:42PM 51.8080 -102.9670 54° Northeast 523 602 37,000  Level FlightAware
08:42PM 51.8660 -102.8380 54° Northeast 523 602 37,000  Level FlightAware
08:43PM 51.9100 -102.7410 54° Northeast 523 602 37,000  Level FlightAware
08:44PM 51.9680 -102.6110 54° Northeast 523 602 37,000  Level FlightAware
08:44PM 52.0110 -102.5140 54° Northeast 523 602 37,000  Level FlightAware
08:45PM 52.0550 -102.4170 54° Northeast 523 602 37,000  Level FlightAware
08:46PM 52.1150 -102.2810 54° Northeast 523 602 37,000  Level FlightAware
08:47PM 52.3333 -101.7000 54° Northeast 520 598 37,000  Level Winnipeg Center
08:48PM 52.4000 -101.5000 61° Northeast 520 598 37,000  Level Winnipeg Center
08:49PM 52.4833 -101.3167 53° Northeast 520 598 37,000  Level Winnipeg Center
08:50PM 52.5500 -101.1000 63° Northeast 510 587 37,000  Level Winnipeg Center
08:51PM 52.6500 -100.8833 53° Northeast 520 598 37,000  Level Winnipeg Center
08:52PM 52.7167 -100.7000 59° Northeast 520 598 37,000  Level Winnipeg Center
08:53PM 52.7833 -100.5167 59° Northeast 520 598 37,000  Level Winnipeg Center
08:54PM 52.8833 -100.3000 53° Northeast 510 587 37,000  Level Winnipeg Center
08:55PM 52.9500 -100.1000 61° Northeast 520 598 37,000  Level Winnipeg Center
08:56PM 53.0333 -99.8833 57° Northeast 530 610 37,000  Level Winnipeg Center
08:57PM 53.1000 -99.7000 59° Northeast 510 587 37,000  Level Winnipeg Center
08:58PM 53.1833 -99.4833 57° Northeast 540 621 37,000  Level Winnipeg Center
08:59PM 53.2500 -99.2667 63° Northeast 520 598 37,000  Level Winnipeg Center
09:00PM 53.3333 -99.0333 59° Northeast 520 598 37,000  Level Winnipeg Center
09:01PM 53.4000 -98.8500 59° Northeast 520 598 37,000  Level Winnipeg Center
09:02PM 53.4833 -98.6167 59° Northeast 510 587 37,000  Level Winnipeg Center
09:03PM 53.5500 -98.4333 58° Northeast 540 621 37,000  Level Winnipeg Center
09:04PM 53.6167 -98.2000 64° Northeast 520 598 37,000  Level Winnipeg Center
09:05PM 53.6833 -97.9833 62° Northeast 530 610 37,000  Level Winnipeg Center
09:06PM 53.7667 -97.7833 55° Northeast 530 610 37,000  Level Winnipeg Center
09:07PM 53.8500 -97.5667 57° Northeast 520 598 37,000  Level Winnipeg Center
09:08PM 53.9167 -97.3333 64° Northeast 520 598 37,000  Level Winnipeg Center
09:09PM 53.9833 -97.1000 64° Northeast 520 598 37,000  Level Winnipeg Center
09:10PM 54.0500 -96.9000 60° Northeast 510 587 37,000  Level Winnipeg Center
09:11PM 54.1333 -96.6833 57° Northeast 520 598 37,000  Level Winnipeg Center
09:12PM 54.2000 -96.4833 60° Northeast 520 598 37,000  Level Winnipeg Center
09:13PM 54.2667 -96.2500 64° Northeast 520 598 37,000  Level Winnipeg Center
09:14PM 54.3333 -96.0500 60° Northeast 530 610 37,000  Level Winnipeg Center
09:15PM 54.4000 -95.8167 64° Northeast 520 598 37,000  Level Winnipeg Center
09:16PM 54.4667 -95.5833 64° Northeast 530 610 37,000  Level Winnipeg Center
09:17PM 54.5333 -95.3500 64° Northeast 530 610 37,000  Level Winnipeg Center
09:18PM 54.6000 -95.1500 60° Northeast 530 610 37,000  Level Winnipeg Center
09:19PM 54.6667 -94.9000 65° Northeast 530 610 37,000  Level Winnipeg Center
09:20PM 54.7500 -94.6667 58° Northeast 530 610 37,000  Level Winnipeg Center
09:21PM 54.8000 -94.4667 66° East 530 610 37,000  Level Winnipeg Center
09:22PM 54.9000 -94.2500 51° Northeast 510 587 37,000  Level Winnipeg Center
09:23PM 55.0000 -94.1000 41° Northeast 510 587 37,000  Level Winnipeg Center
09:24PM 55.1167 -93.9500 36° Northeast 500 575 37,000  Level Winnipeg Center
09:25PM 55.2333 -93.8000 36° Northeast 500 575 37,000  Level Winnipeg Center
09:26PM 55.3333 -93.6333 43° Northeast 500 575 37,000  Level Winnipeg Center
09:27PM 55.4500 -93.5167 30° Northeast 500 575 37,000  Level Winnipeg Center
09:28PM 55.5667 -93.3500 39° Northeast 510 587 37,000  Level Winnipeg Center
09:29PM 55.6833 -93.2000 36° Northeast 510 587 37,000  Level Winnipeg Center
09:30PM 55.7833 -93.0333 43° Northeast 510 587 37,000  Level Winnipeg Center
09:31PM 55.8833 -92.8667 43° Northeast 490 564 37,000  Level Winnipeg Center
09:32PM 55.9833 -92.6500 50° Northeast 520 598 37,000  Level Winnipeg Center
09:33PM 56.0333 -92.4333 67° East 530 610 37,000  Level Winnipeg Center
09:34PM 56.1167 -92.1833 59° Northeast 530 610 37,000  Level Winnipeg Center
09:35PM 56.1667 -91.9333 70° East 540 621 37,000  Level Winnipeg Center
09:36PM 56.2333 -91.6833 64° Northeast 530 610 37,000  Level Winnipeg Center
09:37PM 56.3000 -91.4667 61° Northeast 530 610 37,000  Level Winnipeg Center
09:38PM 56.3500 -91.2167 70° East 530 610 37,000  Level Winnipeg Center
09:39PM 56.4167 -90.9667 64° Northeast 540 621 37,000  Level Winnipeg Center
09:40PM 56.4667 -90.7167 70° East 530 610 37,000  Level Winnipeg Center
09:41PM 56.5333 -90.4667 64° Northeast 520 598 37,000  Level Winnipeg Center
09:42PM 56.6000 -90.2333 62° Northeast 530 610 37,000  Level Winnipeg Center
09:43PM 56.6500 -89.9833 70° East 530 610 37,000  Level Winnipeg Center
09:44PM 56.7000 -89.7667 67° East 520 598 37,000  Level Winnipeg Center
09:45PM 56.7667 -89.5000 65° Northeast 530 610 37,000  Level Winnipeg Center
09:46PM 56.8167 -89.2167 72° East 540 621 37,000  Level Winnipeg Center
09:47PM 56.8667 -88.9833 69° East 520 598 37,000  Level Winnipeg Center
09:48PM 56.9500 -88.7333 58° Northeast 530 610 37,000  Level Winnipeg Center
09:49PM 57.0000 -88.5000 68° East 530 610 37,000  Level Winnipeg Center
09:50PM 57.0500 -88.2500 70° East 530 610 37,000  Level Winnipeg Center
09:51PM 57.1000 -87.8833 76° East 530 610 37,000  Level Edmonton Center
09:52PM 57.1500 -87.6333 70° East 520 598 37,000  Level Edmonton Center
09:53PM 57.2000 -87.3833 70° East 530 610 37,000  Level Edmonton Center
09:54PM 57.2500 -87.1333 70° East 520 598 37,000  Level Edmonton Center
09:55PM 57.3000 -86.8500 72° East 520 598 37,000  Level Edmonton Center
09:56PM 57.3667 -86.6000 64° Northeast 530 610 37,000  Level Edmonton Center
09:57PM 57.4000 -86.3833 74° East 530 610 37,000  Level Edmonton Center
09:58PM 57.4500 -86.1333 70° East 530 610 37,000  Level Edmonton Center
09:59PM 57.5167 -85.8667 65° Northeast 520 598 37,000  Level Edmonton Center
10:00PM 57.5500 -85.6000 77° East 520 598 37,000  Level Edmonton Center
10:01PM 57.6000 -85.3167 72° East 530 610 37,000  Level Edmonton Center
10:02PM 57.6500 -85.0667 69° East 530 610 37,000  Level Edmonton Center
10:03PM 57.6833 -84.8167 76° East 530 610 37,000  Level Edmonton Center
10:04PM 57.7333 -84.5500 71° East 530 610 37,000  Level Edmonton Center
10:05PM 57.8000 -84.2833 65° Northeast 530 610 37,000  Level Edmonton Center
10:06PM 57.8333 -84.0333 76° East 530 610 37,000  Level Edmonton Center
10:07PM 57.8833 -83.7333 72° East 530 610 37,000  Level Edmonton Center
10:08PM 57.9167 -83.4833 76° East 530 610 37,000  Level Edmonton Center
10:09PM 57.9833 -83.2000 66° East 530 610 37,000  Level Edmonton Center
10:10PM 58.0167 -82.9500 76° East 540 621 37,000  Level Edmonton Center
10:11PM 58.0500 -82.6500 78° East 540 621 37,000  Level Edmonton Center
10:12PM 58.1167 -82.3833 65° Northeast 540 621 37,000  Level Edmonton Center
10:13PM 58.1500 -82.1167 77° East 540 621 37,000  Level Edmonton Center
10:14PM 58.1833 -81.8167 78° East 540 621 37,000  Level Edmonton Center
10:15PM 58.2333 -81.5500 70° East 540 621 37,000  Level Edmonton Center
10:16PM 58.2833 -81.2833 70° East 540 621 37,000  Level Edmonton Center
10:17PM 58.3167 -81.0167 77° East 540 621 37,000  Level Edmonton Center
10:18PM 58.3500 -80.7500 76° East 540 621 37,000  Level Edmonton Center
10:19PM 58.4000 -80.4500 72° East 540 621 37,000  Level Edmonton Center
10:20PM 58.4333 -80.1833 76° East 540 621 37,000  Level Edmonton Center
10:21PM 58.4667 -79.9167 76° East 540 621 37,000  Level Edmonton Center
10:22PM 58.5167 -79.6333 71° East 540 621 37,000  Level Edmonton Center
10:23PM 58.5667 -79.3500 71° East 540 621 37,000  Level Edmonton Center
10:24PM 58.6167 -79.1000 69° East 550 633 37,000  Level Edmonton Center
10:25PM 58.6833 -78.8000 67° East 550 633 37,000  Level Edmonton Center
10:26PM 58.7333 -78.5167 71° East 550 633 37,000  Level Edmonton Center
10:27PM 58.7833 -78.2333 71° East 550 633 37,000  Level Edmonton Center
10:28PM 58.8167 -77.9500 77° East 550 633 37,000  Level Edmonton Center
10:29PM 58.8667 -77.6667 71° East 550 633 37,000  Level Edmonton Center
10:30PM 58.9167 -77.4167 69° East 550 633 37,000  Level Edmonton Center
10:31PM 58.9833 -77.1167 67° East 550 633 37,000  Level Edmonton Center
10:32PM 59.0167 -76.8333 77° East 550 633 37,000  Level Edmonton Center
10:33PM 59.0667 -76.5333 72° East 560 644 37,000  Level Edmonton Center
10:34PM 59.1000 -76.2500 77° East 560 644 37,000  Level Edmonton Center
10:35PM 59.1667 -75.9500 66° East 560 644 37,000  Level Edmonton Center
10:36PM 59.2167 -75.6833 70° East 560 644 37,000  Level Edmonton Center
10:37PM 59.2500 -75.4000 77° East 560 644 37,000  Level Edmonton Center
10:38PM 59.2833 -75.1000 78° East 560 644 37,000  Level Edmonton Center
10:39PM 59.3500 -74.8000 66° East 560 644 37,000  Level Edmonton Center
10:40PM 59.3833 -74.5000 78° East 560 644 37,000  Level Edmonton Center
10:41PM 59.4167 -74.2167 77° East 560 644 37,000  Level Edmonton Center
10:42PM 59.4500 -73.9167 78° East 560 644 37,000  Level Edmonton Center
10:43PM 59.5000 -73.6167 72° East 570 656 37,000  Level Edmonton Center
10:44PM 59.5833 -73.5500 22° Northeast 570 656 37,000  Level Gander Center
10:45PM 59.6333 -73.2333 73° East 570 656 37,000  Level Gander Center
10:47PM 59.6833 -72.7333 79° East 560 644 37,000  Level Montreal Center
10:48PM 59.7333 -72.4333 72° East 560 644 37,000  Level Montreal Center
10:49PM 59.7667 -72.1167 78° East 570 656 37,000  Level Montreal Center
10:50PM 59.8000 -71.8167 77° East 570 656 37,000  Level Montreal Center
10:51PM 59.8333 -71.5167 77° East 570 656 37,000  Level Montreal Center
10:51PM 59.8667 -71.4167 56° Northeast 570 656 37,000  Level Gander Center
10:52PM 59.8833 -71.1167 84° East 570 656 37,000  Level Gander Center
10:53PM 59.9167 -70.8000 78° East 570 656 37,000  Level Gander Center
10:54PM 59.9667 -70.5000 71° East 560 644 37,000  Level Gander Center
10:57PM 60.0167 -70.0049 78° East  Level FlightAware Approximate
11:00PM 60.1500 -68.6833 81° East 570 656 37,000  Level Gander Center
11:01PM 60.1833 -68.3833 77° East 570 656 37,000  Level Gander Center
11:02PM 60.2000 -68.0833 83° East 560 644 37,000  Level Gander Center
11:03PM 60.2333 -67.7833 77° East 560 644 37,000  Level Gander Center
11:04PM 60.1967 -68.0290 79° East  Level FlightAware Approximate
11:04PM 60.2667 -67.4500 78° East 560 644 37,000  Level Gander Center
11:05PM 60.2200 -67.7450 80° East  Level FlightAware Approximate
11:05PM 60.3000 -67.1167 78° East 560 644 37,000  Level Gander Center
11:06PM 60.2427 -67.4606 81° East  Level FlightAware Approximate
11:06PM 60.3167 -66.8333 83° East 560 644 37,000  Level Gander Center
11:07PM 60.3333 -66.5333 83° East 560 644 37,000  Level Gander Center
11:08PM 60.3667 -66.2667 76° East 560 644 37,000  Level Gander Center
11:09PM 60.3667 -65.9833 90° East 560 644 37,000  Level Montreal Center
11:09PM 60.3833 -65.9000 68° East 550 633 37,000  Level Gander Center
11:10PM 60.4167 -65.6000 77° East 560 644 37,000  Level Gander Center
11:11PM 60.4500 -65.3000 77° East 560 644 37,000  Level Gander Center
11:12PM 60.4500 -65.0167 90° East 550 633 37,000  Level Gander Center
11:13PM 60.4667 -64.6833 84° East 560 644 37,000  Level Gander Center
11:14PM 60.5000 -64.3833 77° East 560 644 37,000  Level Gander Center
11:15PM 60.5000 -64.1667 90° East 560 644 37,000  Level Montreal Center
11:15PM 60.5167 -64.0500 74° East 560 644 37,000  Level Gander Center
11:16PM 60.5333 -63.7833 83° East 560 644 37,000  Level Gander Center
11:17PM 60.5500 -63.4500 84° East 550 633 37,000  Level Gander Center
11:18PM 60.5667 -63.2000 82° East 560 644 37,000  Level Montreal Center
11:18PM 60.5667 -63.1167 90° East 560 644 37,000  Level Gander Center
11:19PM 60.5833 -62.8000 84° East 560 644 37,000  Level Gander Center
11:20PM 60.6167 -62.4667 78° East 560 644 37,000  Level Gander Center
11:21PM 60.6333 -62.2000 83° East 560 644 37,000 120 Level Gander Center
11:22PM 60.6500 -61.9500 82° East 560 644 37,200 420 Climbing Montreal Center
11:23PM 60.7000 -61.6500 71° East 550 633 37,700 600 Climbing Montreal Center
11:24PM 60.7833 -61.2833 65° Northeast 540 621 38,800 480 Climbing Gander Center
11:25PM 60.8167 -60.9833 77° East 530 610 39,000 60 Climbing Gander Center
11:26PM 60.8667 -60.7000 70° East 540 621 39,000  Level Gander Center
11:27PM 60.9167 -60.4333 69° East 540 621 39,000  Level Gander Center
11:28PM 60.9500 -60.1500 76° East 540 621 39,000  Level Gander Center
11:29PM 60.9833 -59.8500 77° East 540 621 39,000  Level Gander Center
11:30PM 60.9833 -59.6167 90° East 530 610 39,000  Level Montreal Center
11:31PM 60.9833 -59.2667 90° East 540 621 39,000  Level Montreal Center
11:31PM 61.0167 -59.1833 50° Northeast 540 621 39,000  Level Gander Center
11:32PM 61.0167 -58.9500 90° East 540 621 39,000  Level Gander Center
11:33PM 61.0167 -58.6500 90° East 540 621 39,000  Level Gander Center
11:34PM 61.0333 -58.3333 84° East 540 621 39,000  Level Gander Center
11:35PM 61.0500 -57.9833 84° East 540 621 39,000  Level Gander Center
11:36PM 61.0500 -57.6833 90° East 550 633 39,000  Level Gander Center
11:37PM 61.0667 -57.3333 84° East 550 633 39,000  Level Gander Center
11:38PM 61.0667 -57.0167 90° East 550 633 39,000  Level Gander Center
11:39PM 61.0500 -56.7167 96° East 550 633 39,000  Level Gander Center
11:40PM 61.0667 -56.4333 83° East 550 633 39,000  Level Gander Center
11:41PM 61.0667 -56.1333 90° East 540 621 39,000  Level Gander Center
11:42PM 61.0833 -55.8167 84° East 540 621 39,000  Level Gander Center
11:43PM 61.0833 -55.5000 90° East 540 621 39,000  Level Gander Center
11:44PM 61.0667 -55.2000 96° East 550 633 39,000  Level Gander Center
11:45PM 61.0667 -54.8833 90° East 540 621 39,000  Level Gander Center
11:46PM 61.0667 -54.5833 90° East 540 621 39,000  Level Gander Center
11:47PM 61.0667 -54.2667 90° East 540 621 39,000  Level Gander Center
11:48PM 61.0667 -53.9667 90° East 540 621 39,000  Level Gander Center
11:49PM 61.0500 -53.6500 96° East 540 621 39,000  Level Gander Center
11:50PM 61.0667 -53.3833 83° East 540 621 39,000  Level Gander Center
11:51PM 61.0667 -53.0667 90° East 540 621 39,000  Level Gander Center
11:52PM 61.0500 -52.7500 96° East 530 610 39,000  Level Gander Center
11:53PM 61.0500 -52.4500 90° East 530 610 39,000  Level Gander Center
11:54PM 61.0333 -52.1333 96° East 530 610 39,000  Level Gander Center
11:55PM 61.0333 -51.8333 90° East 530 610 39,000  Level Gander Center
11:56PM 61.0333 -51.5500 90° East 530 610 39,000  Level Gander Center
11:57PM 61.0167 -51.2500 96° East 530 610 39,000  Level Gander Center
11:58PM 61.0167 -50.9333 90° East 530 610 39,000  Level Gander Center
11:59PM 61.0000 -50.6333 96° East 530 610 39,000  Level Gander Center
12:00AM 60.9833 -50.3500 97° East 530 610 39,000  Level Gander Center
12:01AM 60.9833 -50.0500 90° East 530 610 39,000  Level Gander Center
12:02AM 61.0000 -49.7333 84° East 530 610 39,000  Level Gander Center
12:03AM 61.0000 -49.4167 90° East 520 598 39,000  Level Gander Center
12:04AM 61.0167 -49.1333 83° East 530 610 39,000  Level Gander Center
12:05AM 61.0167 -48.8167 90° East 520 598 39,000  Level Gander Center
12:06AM 61.0167 -48.5500 90° East 520 598 39,000  Level Gander Center
12:07AM 61.0333 -48.2667 83° East 520 598 39,000  Level Gander Center
12:08AM 61.0333 -47.9500 90° East 520 598 39,000  Level Gander Center
12:09AM 61.0500 -47.6667 83° East 520 598 39,000  Level Gander Center
12:10AM 61.0500 -47.3500 90° East 520 598 39,000  Level Gander Center
12:11AM 61.0500 -47.0667 90° East 520 598 39,000  Level Gander Center
12:12AM 61.0500 -46.7500 90° East 520 598 39,000  Level Gander Center
12:13AM 61.0500 -46.4667 90° East 520 598 39,000  Level Gander Center
12:14AM 61.0500 -46.1500 90° East 520 598 39,000  Level Gander Center
12:15AM 61.0667 -45.8833 83° East 520 598 39,000  Level Gander Center
12:16AM 61.0500 -45.5667 96° East 520 598 39,000  Level Gander Center
12:17AM 61.0667 -45.2833 83° East 520 598 39,000  Level Gander Center
12:18AM 61.0667 -45.0000 90° East 520 598 39,000  Level Gander Center
12:19AM 61.0500 -44.6833 96° East 520 598 39,000  Level Gander Center
12:20AM 61.0500 -44.4000 90° East 520 598 39,000  Level Gander Center
12:21AM 61.0500 -44.0833 90° East 520 598 39,000  Level Gander Center
12:22AM 61.0667 -43.8000 83° East 520 598 39,000  Level Gander Center
12:23AM 61.0667 -43.5167 90° East 520 598 39,000  Level Gander Center
12:24AM 61.0667 -43.2000 90° East 510 587 39,000  Level Gander Center
12:25AM 61.0500 -42.9167 97° East 520 598 39,000  Level Gander Center
12:26AM 61.0500 -42.6500 90° East 520 598 39,000  Level Gander Center
12:27AM 61.0500 -42.3333 90° East 520 598 39,000  Level Gander Center
12:28AM 61.0333 -42.0500 97° East 520 598 39,000  Level Gander Center
12:29AM 61.0333 -41.7333 90° East 520 598 39,000  Level Gander Center
12:30AM 61.0167 -41.4500 97° East 510 587 39,000  Level Gander Center
12:31AM 61.0167 -41.1833 90° East 510 587 39,000  Level Gander Center
12:32AM 61.0167 -40.9000 90° East 510 587 39,000  Level Gander Center
12:33AM 61.0000 -40.5833 96° East 510 587 39,000  Level Gander Center
12:34AM 60.9833 -40.3000 97° East 510 587 39,000  Level Gander Center
12:35AM 60.9833 -40.0333 90° East 510 587 39,000  Level Gander Center
12:36AM 60.9500 -39.7333 103° East 520 598 39,000  Level Gander Center
12:37AM 60.9500 -39.4500 90° East 520 598 39,000  Level Gander Center
12:38AM 60.9333 -39.1333 96° East 520 598 39,000  Level Gander Center
12:39AM 60.9000 -38.8667 104° East 520 598 39,000  Level Gander Center
12:40AM 60.8833 -38.5667 96° East 520 598 39,000  Level Gander Center
12:41AM 60.8500 -38.3000 104° East 520 598 39,000  Level Gander Center
12:42AM 60.8333 -37.9833 96° East 520 598 39,000  Level Gander Center
12:43AM 60.8333 -37.7167 90° East 520 598 39,000  Level Gander Center
12:44AM 60.7833 -37.4167 109° East 520 598 39,000  Level Gander Center
12:45AM 60.7833 -37.1500 90° East 520 598 39,000  Level Gander Center
12:46AM 60.7333 -36.8500 109° East 520 598 39,000  Level Gander Center
12:47AM 60.7333 -36.5667 90° East 520 598 39,000  Level Gander Center
12:48AM 60.6833 -36.2833 110° East 520 598 39,000  Level Gander Center
12:50AM 60.6500 -35.7000 96° East 520 598 39,000  Level Gander Center
12:51AM 60.6167 -35.4333 104° East 520 598 39,000  Level Gander Center
12:52AM 60.6000 -35.1667 97° East 520 598 39,000  Level Gander Center
12:54AM 60.5667 -34.7699 100° East  Level FlightAware Approximate
12:55AM 60.5167 -34.4167 100° East 510 587 39,000  Level Gander Center
12:57AM 60.4884 -33.9343 102° East  Level FlightAware Approximate
01:04AM 60.2601 -31.9638 102° East  Level FlightAware Approximate
01:05AM 60.2252 -31.6846 104° East  Level FlightAware Approximate
01:06AM 60.1896 -31.4060 104° East  Level FlightAware Approximate
01:07AM 60.1535 -31.1280 105° East  Level FlightAware Approximate
01:08AM 60.1167 -30.8506 105° East  Level FlightAware Approximate
01:09AM 60.0794 -30.5739 105° East  Level FlightAware Approximate
01:10AM 60.0416 -30.2977 105° East  Level FlightAware Approximate
01:11AM 60.0031 -30.0222 105° East  Level FlightAware Approximate
01:12AM 59.9842 -29.7392 97° East  Level FlightAware Approximate
01:13AM 59.9664 -29.4558 97° East  Level FlightAware Approximate
01:14AM 59.9480 -29.1728 97° East  Level FlightAware Approximate
01:15AM 59.9289 -28.8900 98° East  Level FlightAware Approximate
01:16AM 59.9093 -28.6075 98° East  Level FlightAware Approximate
01:17AM 59.8891 -28.3254 98° East  Level FlightAware Approximate
01:18AM 59.8683 -28.0437 98° East  Level FlightAware Approximate
01:19AM 59.8468 -27.7623 99° East  Level FlightAware Approximate
01:20AM 59.8248 -27.4812 99° East  Level FlightAware Approximate
01:21AM 59.8022 -27.2006 99° East  Level FlightAware Approximate
01:22AM 59.7790 -26.9203 99° East  Level FlightAware Approximate
01:23AM 59.7551 -26.6404 99° East  Level FlightAware Approximate
01:24AM 59.7307 -26.3610 100° East  Level FlightAware Approximate
01:25AM 59.7057 -26.0819 100° East  Level FlightAware Approximate
01:26AM 59.6801 -25.8033 100° East  Level FlightAware Approximate
01:27AM 59.6540 -25.5250 100° East  Level FlightAware Approximate
01:28AM 59.6272 -25.2473 101° East  Level FlightAware Approximate
01:29AM 59.5998 -24.9700 101° East  Level FlightAware Approximate
01:30AM 59.5719 -24.6931 101° East  Level FlightAware Approximate
01:31AM 59.5434 -24.4167 101° East  Level FlightAware Approximate
01:32AM 59.5143 -24.1408 102° East  Level FlightAware Approximate
01:33AM 59.4846 -23.8653 102° East  Level FlightAware Approximate
01:34AM 59.4543 -23.5903 102° East  Level FlightAware Approximate
01:35AM 59.4235 -23.3159 102° East  Level FlightAware Approximate
01:36AM 59.3920 -23.0419 103° East  Level FlightAware Approximate
01:37AM 59.3601 -22.7685 103° East  Level FlightAware Approximate
01:38AM 59.3275 -22.4956 103° East  Level FlightAware Approximate
01:39AM 59.2944 -22.2232 103° East  Level FlightAware Approximate
01:40AM 59.2607 -21.9513 104° East  Level FlightAware Approximate
01:41AM 59.2264 -21.6800 104° East  Level FlightAware Approximate
01:42AM 59.1916 -21.4092 104° East  Level FlightAware Approximate
01:43AM 59.1562 -21.1390 104° East  Level FlightAware Approximate
01:44AM 59.1202 -20.8693 104° East  Level FlightAware Approximate
01:45AM 59.0837 -20.6002 105° East  Level FlightAware Approximate
01:46AM 59.0467 -20.3317 105° East  Level FlightAware Approximate
01:47AM 59.0090 -20.0638 105° East  Level FlightAware Approximate
01:48AM 58.9694 -19.7973 106° East  Level FlightAware Approximate
01:49AM 58.9288 -19.5316 106° East  Level FlightAware Approximate
01:50AM 58.8876 -19.2666 107° East  Level FlightAware Approximate
01:51AM 58.8459 -19.0022 107° East  Level FlightAware Approximate
01:52AM 58.8036 -18.7384 107° East  Level FlightAware Approximate
01:53AM 58.7608 -18.4753 107° East  Level FlightAware Approximate
01:54AM 58.7175 -18.2129 108° East  Level FlightAware Approximate
01:55AM 58.6736 -17.9511 108° East  Level FlightAware Approximate
01:56AM 58.6292 -17.6900 108° East  Level FlightAware Approximate
01:57AM 58.5843 -17.4295 108° East  Level FlightAware Approximate
01:58AM 58.5389 -17.1697 108° East  Level FlightAware Approximate
01:59AM 58.4929 -16.9106 109° East  Level FlightAware Approximate
02:00AM 58.4464 -16.6522 109° East  Level FlightAware Approximate
02:01AM 58.3994 -16.3944 109° East  Level FlightAware Approximate
02:02AM 58.3519 -16.1374 109° East  Level FlightAware Approximate
02:03AM 58.3038 -15.8810 110° East  Level FlightAware Approximate
02:04AM 58.2553 -15.6253 110° East  Level FlightAware Approximate
02:05AM 58.2062 -15.3704 110° East  Level FlightAware Approximate
02:06AM 58.1567 -15.1161 110° East  Level FlightAware Approximate
02:07AM 58.1066 -14.8626 110° East  Level FlightAware Approximate
02:08AM 58.0560 -14.6097 111° Southeast  Level FlightAware Approximate
02:09AM 58.0050 -14.3576 111° Southeast  Level FlightAware Approximate
02:10AM 57.9534 -14.1062 111° Southeast  Level FlightAware Approximate
02:11AM 57.9013 -13.8556 111° Southeast  Level FlightAware Approximate
02:12AM 57.8488 -13.6056 111° Southeast  Level FlightAware Approximate
02:13AM 57.7957 -13.3564 112° Southeast  Level FlightAware Approximate
02:14AM 57.7422 -13.1080 112° Southeast  Level FlightAware Approximate
02:15AM 57.6882 -12.8602 112° Southeast  Level FlightAware Approximate
02:16AM 57.6337 -12.6132 112° Southeast  Level FlightAware Approximate
02:17AM 57.5787 -12.3670 113° Southeast  Level FlightAware Approximate
02:18AM 57.5233 -12.1215 113° Southeast  Level FlightAware Approximate
02:19AM 57.4674 -11.8767 113° Southeast  Level FlightAware Approximate
02:20AM 57.4109 -11.6327 113° Southeast  Level FlightAware Approximate
02:21AM 57.3541 -11.3895 113° Southeast  Level FlightAware Approximate
02:22AM 57.2967 -11.1470 114° Southeast  Level FlightAware Approximate
02:23AM 57.2389 -10.9053 114° Southeast  Level FlightAware Approximate
02:24AM 57.1807 -10.6643 114° Southeast  Level FlightAware Approximate
02:25AM 57.1219 -10.4241 114° Southeast  Level FlightAware Approximate
02:26AM 57.0628 -10.1847 114° Southeast  Level FlightAware Approximate
02:27AM 57.0032 -9.9458 114° Southeast  Level FlightAware Approximate
02:28AM 56.9437 -9.7074 115° Southeast  Level FlightAware Approximate
02:29AM 56.8838 -9.4698 115° Southeast  Level FlightAware Approximate
02:29AM 56.8890 -9.5830 115° Southeast 528 608 39,000  Level FlightAware
02:29AM 56.8550 -9.4070 109° East 530 610 39,000  Level FlightAware
02:30AM 56.8170 -9.2060 109° East 529 609 39,000  Level FlightAware
02:31AM 56.7800 -9.0200 110° East 529 609 39,000  Level FlightAware
02:31AM 56.7505 -8.8689 110° East 480 552 39,000  Level FlightAware UK
02:32AM 56.7470 -8.8490 110° East 531 611 39,000  Level FlightAware
02:32AM 56.7100 -8.6630 110° East 530 610 39,000  Level FlightAware
02:33AM 56.6751 -8.4900 110° East 482 555 39,000  Level FlightAware UK
02:33AM 56.6760 -8.4970 110° East 530 610 39,000  Level FlightAware
02:33AM 56.6497 -8.3653 110° East 480 552 39,000  Level FlightAware UK
02:34AM 56.6430 -8.3330 110° East 527 606 39,000  Level FlightAware
02:34AM 56.6070 -8.1590 111° Southeast 526 605 39,000  Level FlightAware
02:35AM 56.5734 -7.9914 111° Southeast 486 559 39,000  Level FlightAware UK
02:35AM 56.5670 -7.9610 111° Southeast 527 606 39,000  Level FlightAware
02:36AM 56.5330 -7.8000 111° Southeast 524 603 39,000  Level FlightAware
02:36AM 56.4959 -7.6209 111° Southeast 484 557 39,000  Level FlightAware UK
02:36AM 56.4980 -7.6310 111° Southeast 521 600 39,000  Level FlightAware
02:37AM 56.4640 -7.4700 111° Southeast 519 597 39,000  Level FlightAware
02:38AM 56.4400 -7.3600 111° Southeast 521 600 39,000  Level FlightAware
02:38AM 56.3970 -7.1560 111° Southeast 522 601 39,000  Level FlightAware
02:39AM 56.3649 -7.0101 111° Southeast 490 564 39,000  Level FlightAware UK
02:39AM 56.3660 -7.0130 111° Southeast 519 597 39,000  Level FlightAware
02:39AM 56.3390 -6.8886 111° Southeast 480 552 39,000  Level FlightAware UK
02:40AM 56.3310 -6.8550 111° Southeast 517 595 39,000  Level FlightAware
02:40AM 56.2920 -6.6760 111° Southeast 520 598 39,000  Level FlightAware
02:41AM 56.2670 -6.5650 111° Southeast 521 600 39,000  Level FlightAware
02:41AM 56.2593 -6.5281 111° Southeast 482 555 39,000  Level FlightAware UK
02:41AM 56.2328 -6.4076 111° Southeast 486 559 39,000  Level FlightAware UK
02:42AM 56.2220 -6.3590 111° Southeast 520 598 39,000  Level FlightAware
02:42AM 56.1810 -6.1770 112° Southeast 519 597 39,000  Level FlightAware
02:43AM 56.1517 -6.0486 112° Southeast 488 562 39,000  Level FlightAware UK
02:43AM 56.1450 -6.0200 112° Southeast 518 596 39,000  Level FlightAware
02:44AM 56.1040 -5.8390 112° Southeast 518 596 39,000  Level FlightAware
02:44AM 56.0760 -5.7230 113° Southeast 516 594 39,000  Level FlightAware
02:45AM 56.0620 -5.6630 113° Southeast 516 594 39,000  Level FlightAware
02:45AM 56.0356 -5.5518 113° Southeast 482 555 39,000  Level FlightAware UK
02:46AM 56.0077 -5.4337 113° Southeast 488 562 39,000  Level FlightAware UK
02:46AM 55.9890 -5.3540 113° Southeast 513 590 39,000  Level FlightAware
02:47AM 55.9470 -5.1800 113° Southeast 515 593 39,000  Level FlightAware
02:47AM 55.9402 -5.1521 113° Southeast 480 552 39,000  Level FlightAware UK
02:47AM 55.9118 -5.0349 113° Southeast 488 562 39,000  Level FlightAware UK
02:47AM 55.9070 -5.0140 113° Southeast 518 596 39,000  Level FlightAware
02:48AM 55.8716 -4.8705 113° Southeast 470 541 39,000  Level FlightAware UK
02:48AM 55.8640 -4.8370 113° Southeast 521 600 39,000  Level FlightAware
02:49AM 55.8240 -4.6780 114° Southeast 526 605 39,000  Level FlightAware
02:49AM 55.7890 -4.5360 114° Southeast 526 605 39,000  Level FlightAware
02:50AM 55.7548 -4.3971 114° Southeast 478 550 39,000  Level FlightAware UK
02:50AM 55.7500 -4.3780 114° Southeast 525 604 39,000  Level FlightAware
02:51AM 55.7060 -4.2040 114° Southeast 526 605 39,000  Level FlightAware
02:51AM 55.6690 -4.0550 114° Southeast 527 606 39,000  Level FlightAware
02:52AM 55.6295 -3.9017 114° Southeast 484 557 39,000  Level FlightAware UK
02:52AM 55.6250 -3.8860 114° Southeast 525 604 39,000  Level FlightAware
02:53AM 55.5850 -3.7280 114° Southeast 523 602 39,000  Level FlightAware
02:54AM 55.5380 -3.5470 115° Southeast 524 603 39,000  Level FlightAware
02:54AM 55.5070 -3.4280 115° Southeast 525 604 39,000  Level FlightAware
02:55AM 55.4664 -3.2717 115° Southeast 484 557 39,000  Level FlightAware UK
02:55AM 55.4620 -3.2570 115° Southeast 524 603 39,000  Level FlightAware
02:55AM 55.4298 -3.1331 115° Southeast 482 555 39,000  Level FlightAware UK
02:56AM 55.4200 -3.0980 115° Southeast 521 600 39,000  Level FlightAware
02:56AM 55.3850 -2.9630 114° Southeast 523 602 39,000  Level FlightAware
02:57AM 55.3450 -2.8130 114° Southeast 522 601 39,000  Level FlightAware
02:57AM 55.3377 -2.7878 114° Southeast 484 557 39,000  Level FlightAware UK
02:57AM 55.3066 -2.6731 114° Southeast 480 552 39,000  Level FlightAware UK
02:58AM 55.2970 -2.6370 114° Southeast 522 601 39,000  Level FlightAware
02:58AM 55.2560 -2.4850 115° Southeast 525 604 39,000  Level FlightAware
02:59AM 55.2131 -2.3287 115° Southeast 482 555 39,000  Level FlightAware UK
02:59AM 55.2130 -2.3270 115° Southeast 524 603 39,000  Level FlightAware
02:59AM 55.1751 -2.1906 115° Southeast 478 550 39,000  Level FlightAware UK
03:00AM 55.1510 -2.1020 115° Southeast 529 609 39,000  Level FlightAware
03:01AM 55.1030 -1.9310 116° Southeast 529 609 39,000  Level FlightAware
03:01AM 55.0670 -1.7980 115° Southeast 523 602 39,000  Level FlightAware
03:02AM 55.0370 -1.6900 116° Southeast 522 601 39,000  Level FlightAware
03:02AM 54.9970 -1.5450 116° Southeast 520 598 39,000  Level FlightAware
03:03AM 54.9598 -1.4145 116° Southeast 488 562 39,000  Level FlightAware UK
03:03AM 54.9540 -1.3940 116° Southeast 520 598 39,000  Level FlightAware
03:04AM 54.9140 -1.2510 116° Southeast 519 597 39,000  Level FlightAware
03:04AM 54.8770 -1.1222 116° Southeast 488 562 39,000  Level FlightAware UK
03:04AM 54.8690 -1.0940 116° Southeast 517 595 39,000  Level FlightAware
03:05AM 54.8324 -0.9666 116° Southeast 490 564 39,000  Level FlightAware UK
03:05AM 54.8270 -0.9460 116° Southeast 515 593 39,000  Level FlightAware
03:06AM 54.7878 -0.8112 116° Southeast 486 559 39,000  Level FlightAware UK
03:06AM 54.7810 -0.7870 116° Southeast 512 589 39,000  Level FlightAware
03:06AM 54.7350 -0.6280 117° Southeast 513 590 39,000  Level FlightAware
03:07AM 54.6910 -0.4780 117° Southeast 513 590 39,000  Level FlightAware
03:08AM 54.6534 -0.3509 117° Southeast 484 557 39,000  Level FlightAware UK
03:08AM 54.6440 -0.3180 117° Southeast 514 592 39,000  Level FlightAware
03:08AM 54.6014 -0.1751 117° Southeast 490 564 39,000  Level FlightAware UK
03:09AM 54.6010 -0.1730 117° Southeast 514 592 39,000  Level FlightAware
03:09AM 54.5580 -0.0270 117° Southeast 509 586 39,000  Level FlightAware
03:10AM 54.5100 0.1320 117° Southeast 512 589 39,000  Level FlightAware
03:11AM 54.4716 0.2591 117° Southeast 482 555 39,000  Level FlightAware UK
03:11AM 54.4420 0.3560 117° Southeast 515 593 39,000  Level FlightAware
03:12AM 54.3986 0.4987 117° Southeast 484 557 39,000  Level FlightAware UK
03:12AM 54.3970 0.5060 117° Southeast 515 593 39,000  Level FlightAware
03:12AM 54.3522 0.6504 117° Southeast 478 550 39,000  Level FlightAware UK
03:12AM 54.3530 0.6490 117° Southeast 516 594 39,000  Level FlightAware
03:13AM 54.3090 0.7930 118° Southeast 519 597 39,000  Level FlightAware
03:14AM 54.2715 0.9117 118° Southeast 484 557 39,000  Level FlightAware UK
03:14AM 54.2600 0.9490 118° Southeast 522 601 39,000  Level FlightAware
03:14AM 54.2080 1.1160 118° Southeast 518 596 39,000  Level FlightAware
03:15AM 54.1640 1.2560 118° Southeast 516 594 39,000  Level FlightAware
03:16AM 54.1130 1.4180 118° Southeast 515 593 39,000  Level FlightAware
03:17AM 54.0680 1.5585 118° Southeast 482 555 39,000  Level FlightAware UK
03:17AM 54.0660 1.5660 118° Southeast 518 596 39,000  Level FlightAware
03:17AM 54.0267 1.6875 118° Southeast 484 557 39,000  Level FlightAware UK
03:17AM 54.0250 1.6930 118° Southeast 519 597 39,000  Level FlightAware
03:18AM 53.9770 1.8430 119° Southeast 516 594 39,000  Level FlightAware
03:19AM 53.9300 1.9870 119° Southeast 511 588 39,000  Level FlightAware
03:19AM 53.8830 2.1310 119° Southeast 509 586 39,000  Level FlightAware
03:20AM 53.8297 2.2723 119° Southeast 482 555 39,000  Level FlightAware UK
03:20AM 53.8300 2.2720 119° Southeast 507 583 39,000  Level FlightAware
03:21AM 53.7550 2.3960 136° Southeast 508 585 39,000  Level FlightAware
03:21AM 53.6910 2.5050 135° Southeast 507 583 39,000  Level FlightAware
03:22AM 53.6102 2.6416 135° Southeast 480 552 39,000  Level FlightAware UK
03:22AM 53.6020 2.6560 135° Southeast 507 583 39,000  Level FlightAware
03:23AM 53.5350 2.7680 135° Southeast 509 586 39,000  Level FlightAware
03:24AM 53.4690 2.8770 135° Southeast 508 585 39,000  Level FlightAware
03:24AM 53.4070 2.9810 135° Southeast 507 583 39,000  Level FlightAware
03:25AM 53.3401 3.0909 135° Southeast 480 552 39,000  Level FlightAware UK
03:25AM 53.3280 3.1170 135° Southeast 511 588 39,000  Level FlightAware
03:26AM 53.2670 3.2480 128° Southeast 515 593 39,000  Level FlightAware
03:26AM 53.2173 3.3528 128° Southeast 484 557 39,000  Level FlightAware UK
03:26AM 53.2120 3.3640 128° Southeast 515 593 39,000  Level FlightAware
03:27AM 53.1420 3.5110 128° Southeast 513 590 39,000  Level FlightAware
03:28AM 53.0820 3.6360 129° Southeast 513 590 39,000  Level FlightAware
03:28AM 53.0200 3.7640 129° Southeast 512 589 39,000  Level FlightAware
03:29AM 52.9600 3.8880 129° Southeast 510 587 39,000  Level FlightAware
03:30AM 52.8960 4.0200 129° Southeast 510 587 39,000  Level FlightAware
03:31AM 52.8330 4.1470 129° Southeast 512 589 39,000  Level FlightAware
03:31AM 52.7790 4.2580 129° Southeast 512 589 39,000  Level FlightAware
03:32AM 52.7280 4.3620 129° Southeast 512 589 39,000  Level FlightAware
03:32AM 52.6663 4.4874 129° Southeast 480 552 39,000  Level FlightAware UK
03:33AM 52.6550 4.5070 129° Southeast 514 592 39,000  Level FlightAware
03:33AM 52.6030 4.6130 129° Southeast 513 590 39,000  Level FlightAware
03:34AM 52.5420 4.7350 129° Southeast 514 592 39,000  Level FlightAware
03:34AM 52.5395 4.7409 129° Southeast 480 552 39,000  Level FlightAware UK
03:34AM 52.4937 4.8309 129° Southeast 484 557 39,000  Level FlightAware UK
03:35AM 52.4720 4.8730 129° Southeast 514 592 39,000  Level FlightAware
03:35AM 52.4160 4.9830 130° Southeast 513 590 39,000  Level FlightAware
03:36AM 52.3474 5.1171 130° Southeast 480 552 39,000  Level FlightAware UK
03:36AM 52.3480 5.1180 130° Southeast 516 594 39,000  Level FlightAware
03:37AM 52.2856 5.2404 130° Southeast 480 552 39,000  Level FlightAware UK
03:37AM 52.2830 5.2450 130° Southeast 517 595 39,000  Level FlightAware
03:37AM 52.2140 5.3780 130° Southeast 518 596 39,000  Level FlightAware
03:38AM 52.1650 5.4740 130° Southeast 517 595 39,000  Level FlightAware
03:39AM 52.1070 5.5850 130° Southeast 517 595 39,000  Level FlightAware
03:39AM 52.0412 5.7069 130° Southeast 482 555 39,000  Level FlightAware UK
03:39AM 52.0350 5.7220 130° Southeast 517 595 39,000  Level FlightAware
03:40AM 51.9740 5.8390 130° Southeast 516 594 39,000  Level FlightAware
03:41AM 51.9150 5.9520 130° Southeast 513 590 39,000  Level FlightAware
03:41AM 51.8540 6.0660 131° Southeast 512 589 39,000  Level FlightAware
03:42AM 51.7880 6.1920 130° Southeast 509 586 39,000 -840 Level FlightAware
03:43AM 51.7260 6.3070 131° Southeast 507 583 37,900 -2,160 Descending FlightAware
03:43AM 51.6620 6.4270 131° Southeast 505 581 36,100 -2,640 Descending FlightAware
03:44AM 51.5910 6.5590 131° Southeast 510 587 34,100 -2,640 Descending FlightAware
03:45AM 51.5280 6.6750 131° Southeast 503 579 32,300 -2,520 Descending FlightAware
03:45AM 51.4790 6.7650 131° Southeast 498 573 31,000 -2,640 Descending FlightAware
03:46AM 51.4120 6.8880 131° Southeast 490 564 29,000 -2,700 Descending FlightAware
03:47AM 51.3490 7.0020 131° Southeast 481 554 27,200 -2,100 Descending FlightAware
03:48AM 51.2860 7.1050 134° Southeast 457 526 26,100 -900 Descending FlightAware
03:48AM 51.2240 7.2060 134° Southeast 444 511 26,000 -120 Descending FlightAware
03:49AM 51.1710 7.3030 131° Southeast 444 511 26,000 -480 Level FlightAware
03:50AM 51.1130 7.4060 132° Southeast 446 513 25,400 -1,140 Descending FlightAware
03:50AM 51.0620 7.4960 132° Southeast 446 513 24,500 -1,560 Descending FlightAware
03:51AM 51.0050 7.5950 132° Southeast 435 501 23,400 -1,860 Descending FlightAware
03:52AM 50.9520 7.6900 132° Southeast 433 498 22,000 -2,100 Descending FlightAware
03:52AM 50.9050 7.7730 132° Southeast 426 490 20,800 -2,100 Descending FlightAware
03:53AM 50.8490 7.8700 132° Southeast 416 479 19,300 -2,100 Descending FlightAware
03:54AM 50.7930 7.9670 132° Southeast 407 468 17,800 -2,100 Descending FlightAware
03:54AM 50.7440 8.0520 132° Southeast 394 453 16,400 -2,160 Descending FlightAware
03:55AM 50.6950 8.1370 132° Southeast 390 449 15,000 -2,100 Descending FlightAware
03:56AM 50.6380 8.2340 133° Southeast 385 443 13,500 -2,040 Descending FlightAware
03:56AM 50.5900 8.3160 133° Southeast 386 444 12,100 -1,920 Descending FlightAware
03:57AM 50.5420 8.3990 132° Southeast 369 425 11,000 -1,380 Descending FlightAware
03:58AM 50.5030 8.4660 132° Southeast 356 410 10,400 -780 Descending FlightAware
03:58AM 50.4530 8.5530 132° Southeast 346 398 10,000 -300 Descending FlightAware
03:59AM 50.4180 8.6150 132° Southeast 311 358 10,000 -300 Level FlightAware
03:59AM 50.3940 8.6570 132° Southeast 299 344 9,700 -1,080 Descending FlightAware
04:00AM 50.3720 8.7140 121° Southeast 294 338 9,000 -1,440 Descending FlightAware
04:00AM 50.3540 8.7700 117° Southeast 293 337 8,300 -1,320 Descending FlightAware
04:01AM 50.3380 8.8210 116° Southeast 291 335 7,800 -1,140 Descending FlightAware
04:01AM 50.3220 8.8720 116° Southeast 283 326 7,300 -1,200 Descending FlightAware
04:02AM 50.3070 8.9170 118° Southeast 283 326 6,800 -1,200 Descending FlightAware
04:02AM 50.2850 8.9680 124° Southeast 276 318 6,200 -1,200 Descending FlightAware
04:02AM 50.2730 8.9770 154° Southeast 272 313 6,000 -720 Descending FlightAware
04:03AM 50.2380 8.9960 161° South 257 296 5,700 -600 Descending FlightAware
04:03AM 50.2130 9.0070 164° South 244 281 5,500 -720 Descending FlightAware
04:04AM 50.1900 8.9980 194° South 230 265 5,200 -1,020 Descending FlightAware
04:04AM 50.1700 8.9840 204° Southwest 230 265 4,800 -1,140 Descending FlightAware
04:04AM 50.1450 8.9530 218° Southwest 234 269 4,300 -900 Descending FlightAware
04:05AM 50.1250 8.9250 222° Southwest 219 252 4,000 -600 Descending FlightAware
04:05AM 50.1170 8.9050 238° Southwest 215 247 3,900 -420 Descending FlightAware
04:05AM 50.1110 8.8840 246° West 207 238 3,800 -480 Descending FlightAware
04:06AM 50.1030 8.8510 249° West 191 220 3,600 -720 Descending FlightAware
04:06AM 50.1000 8.8390 249° West 186 214 3,400 -1,080 Descending FlightAware
04:06AM 50.0910 8.8010 250° West 185 213 2,900 -1,020 Descending FlightAware
04:07AM 50.0820 8.7640 249° West 176 203 2,400 -1,020 Descending FlightAware
04:07AM 50.0740 8.7280 251° West 171 197 1,900 -960 Descending FlightAware
04:08AM 50.0700 8.7110 250° West 166 191 1,700 -900 Descending FlightAware
04:08AM 50.0630 8.6830 249° West 150 173 1,300 -900 Descending FlightAware
04:09AM 50.0560 8.6530 250° West 147 169 900 -780 Descending FlightAware
04:09AM 50.0500 8.6280 250° West 145 167 600 -720 Descending FlightAware
04:10AM 50.0440 8.6030 250° West 143 165 300 -660 Descending FlightAware
04:10AM 50.0370 8.5740 249° West 143 165 -600 Descending FlightAware
04:10AM 50.0320 8.5530 250° West 143 165  Level FlightAware
04:12AM 50.0330 8.5450 281° West 15 17  Level FlightAware
04:13AM 50.0370 8.5460 North 11 13  Level FlightAware
04:14AM 50.0380 8.5480 52° Northeast 8 9  Level FlightAware
04:15AM 50.0390 8.5530 73° East 13 15  Level FlightAware
04:16AM 50.0390 8.5550 90° East 14 16  Level FlightAware
04:16AM 50.0400 8.5580 63° Northeast 8 9  Level FlightAware
04:17AM 50.0400 8.5590 90° East 3 3  Level FlightAware
04:17AM 50.0410 8.5600 33° Northeast  Level FlightAware
04:19AM 50.0410 8.5610 90° East 11 13  Level FlightAware
04:19AM 50.0410 8.5630 90° East 8 9  Level FlightAware
04:22AM 50.0167 8.5667 136° Southeast  Level FlightAware Approximate